Time;durP1;ratioP1;P1;durP2;ratioP2;P2;SDS_P1;SDS_P2;PMS_P1;PMS_P2;Temp;Humidity;BMP_temperature;BMP_pressure;BME280_temperature;BME280_humidity;BME280_pressure;Samples;Min_cycle;Max_cycle;Signal;HPM_P1;HPM_P2
2024/02/21 00:00:20;;;;;;;10.85;6.03;;;8.70;99.90;;;;;;6303045;22;20015;-85
2024/02/21 00:02:45;;;;;;;12.70;6.10;;;8.80;99.90;;;;;;6277743;22;19999;-85
2024/02/21 00:05:11;;;;;;;12.57;4.78;;;8.70;99.90;;;;;;6303297;22;20011;-84
2024/02/21 00:07:37;;;;;;;8.95;3.97;;;8.70;99.90;;;;;;6303699;22;20481;-84
2024/02/21 00:10:03;;;;;;;11.00;5.07;;;8.70;99.90;;;;;;6303016;22;20015;-86
2024/02/21 00:12:28;;;;;;;9.85;5.38;;;8.70;99.90;;;;;;6303268;22;20149;-85
2024/02/21 00:14:54;;;;;;;11.77;5.45;;;8.60;99.90;;;;;;6277283;22;20039;-85
2024/02/21 00:17:20;;;;;;;13.85;6.43;;;8.60;99.90;;;;;;6328690;22;19999;-85
2024/02/21 00:19:45;;;;;;;10.23;4.90;;;8.60;99.90;;;;;;6302762;22;20022;-86
2024/02/21 00:22:11;;;;;;;11.65;5.15;;;8.60;99.90;;;;;;6304455;22;20026;-85
2024/02/21 00:24:37;;;;;;;9.73;4.22;;;8.60;99.90;;;;;;6303476;22;19999;-86
2024/02/21 00:27:03;;;;;;;6.13;3.70;;;8.60;99.90;;;;;;6303507;22;20007;-85
2024/02/21 00:29:29;;;;;;;9.30;3.78;;;8.60;99.90;;;;;;6302755;22;20424;-87
2024/02/21 00:31:54;;;;;;;12.32;5.13;;;8.60;99.90;;;;;;6304304;22;20014;-85
2024/02/21 00:34:20;;;;;;;8.45;4.35;;;8.60;99.90;;;;;;6277061;22;20011;-86
2024/02/21 00:36:46;;;;;;;11.90;5.38;;;8.60;99.90;;;;;;6277298;22;20103;-86
2024/02/21 00:39:11;;;;;;;11.80;6.13;;;8.60;99.90;;;;;;6303272;22;20033;-85
2024/02/21 00:41:37;;;;;;;10.13;5.05;;;8.60;99.90;;;;;;6302964;22;20011;-86
2024/02/21 00:44:05;;;;;;;14.23;5.93;;;8.60;99.90;;;;;;6277488;22;20331;-86
2024/02/21 00:46:31;;;;;;;12.10;6.05;;;8.60;99.90;;;;;;6276851;22;20015;-86
2024/02/21 00:48:56;;;;;;;8.07;4.57;;;8.70;99.90;;;;;;6303214;22;20141;-85
2024/02/21 00:51:22;;;;;;;15.43;6.18;;;8.60;99.90;;;;;;6302609;22;20003;-85
2024/02/21 00:53:48;;;;;;;12.05;4.53;;;8.60;99.90;;;;;;6277188;22;20014;-85
2024/02/21 00:56:13;;;;;;;12.13;5.82;;;8.60;99.90;;;;;;6276739;22;20007;-86
2024/02/21 00:58:39;;;;;;;12.15;5.22;;;8.70;99.90;;;;;;6277310;22;20007;-85
2024/02/21 01:01:04;;;;;;;9.45;4.85;;;8.70;99.90;;;;;;6276286;22;20010;-86
2024/02/21 01:03:30;;;;;;;6.32;4.35;;;8.70;99.90;;;;;;6276477;22;20060;-85
2024/02/21 01:05:56;;;;;;;11.63;4.90;;;8.70;99.90;;;;;;6277176;22;20003;-85
2024/02/21 01:08:21;;;;;;;10.30;4.80;;;8.70;99.90;;;;;;6276722;22;20003;-86
2024/02/21 01:10:47;;;;;;;13.57;5.80;;;8.70;99.90;;;;;;6302618;22;20007;-85
2024/02/21 01:13:13;;;;;;;13.50;6.22;;;8.60;99.90;;;;;;6276024;22;20660;-86
2024/02/21 01:15:38;;;;;;;17.20;7.78;;;8.70;99.90;;;;;;6276779;22;20117;-84
2024/02/21 01:18:05;;;;;;;15.52;6.80;;;8.60;99.90;;;;;;6328523;22;20612;-85
2024/02/21 01:20:30;;;;;;;11.05;5.40;;;8.60;99.90;;;;;;6302347;22;20015;-86
2024/02/21 01:22:56;;;;;;;12.93;5.78;;;8.60;99.90;;;;;;6302769;22;20010;-85
2024/02/21 01:25:23;;;;;;;16.90;6.88;;;8.60;99.90;;;;;;6328486;22;20396;-85
2024/02/21 01:27:48;;;;;;;14.88;6.80;;;8.60;99.90;;;;;;6304597;22;20435;-85
2024/02/21 01:30:14;;;;;;;12.40;6.00;;;8.60;99.90;;;;;;6276325;22;20118;-84
2024/02/21 01:32:40;;;;;;;9.25;4.53;;;8.70;99.90;;;;;;6277039;22;20102;-84
2024/02/21 01:35:07;;;;;;;9.23;4.60;;;8.60;99.90;;;;;;6278031;22;20291;-84
2024/02/21 01:37:33;;;;;;;8.77;4.70;;;8.70;99.90;;;;;;6276099;22;20022;-86
2024/02/21 01:39:58;;;;;;;8.77;5.22;;;8.70;99.90;;;;;;6276881;22;20431;-84
2024/02/21 01:42:24;;;;;;;8.90;4.75;;;8.70;99.90;;;;;;6276117;22;20321;-84
2024/02/21 01:44:50;;;;;;;6.28;4.20;;;8.70;99.90;;;;;;6276978;22;20007;-85
2024/02/21 01:47:16;;;;;;;7.32;4.57;;;8.70;99.90;;;;;;6301903;22;20065;-84
2024/02/21 01:49:41;;;;;;;11.90;5.07;;;8.70;99.90;;;;;;6276113;22;20391;-85
2024/02/21 01:52:08;;;;;;;10.35;4.65;;;8.70;99.90;;;;;;6301798;22;20057;-85
2024/02/21 01:54:34;;;;;;;9.15;5.05;;;8.80;99.90;;;;;;6302122;22;20321;-85
2024/02/21 01:57:00;;;;;;;11.65;5.28;;;8.70;99.90;;;;;;6276879;22;20029;-85
2024/02/21 01:59:28;;;;;;;7.80;4.18;;;8.70;99.90;;;;;;6302373;22;20023;-84
2024/02/21 02:01:55;;;;;;;8.35;4.03;;;8.70;99.90;;;;;;6302634;22;20003;-84
2024/02/21 02:04:21;;;;;;;11.25;5.18;;;8.80;99.90;;;;;;6303427;22;20011;-85
2024/02/21 02:06:47;;;;;;;7.15;3.78;;;8.70;99.90;;;;;;6303595;22;20195;-84
2024/02/21 02:09:12;;;;;;;10.40;4.55;;;8.70;99.90;;;;;;6276295;22;20015;-85
2024/02/21 02:11:39;;;;;;;8.18;4.20;;;8.70;99.90;;;;;;6276044;22;20506;-84
2024/02/21 02:14:04;;;;;;;9.13;4.00;;;8.80;99.90;;;;;;6303322;22;20432;-84
2024/02/21 02:16:30;;;;;;;8.18;4.15;;;8.80;99.90;;;;;;6300858;22;20014;-85
2024/02/21 02:18:55;;;;;;;9.35;4.32;;;8.80;99.90;;;;;;6276313;22;20043;-85
2024/02/21 02:21:32;;;;;;;13.18;5.45;;;8.70;99.90;;;;;;6275500;22;20007;-85
2024/02/21 02:23:58;;;;;;;12.38;5.25;;;8.80;99.90;;;;;;6276323;22;20003;-85
2024/02/21 02:26:24;;;;;;;8.63;3.97;;;8.80;99.90;;;;;;6275463;22;20015;-84
2024/02/21 02:28:50;;;;;;;10.23;4.28;;;8.80;99.90;;;;;;6301814;22;20010;-84
2024/02/21 02:31:15;;;;;;;9.82;5.07;;;8.80;99.90;;;;;;6301069;22;20439;-83
2024/02/21 02:33:44;;;;;;;11.45;5.55;;;8.80;99.90;;;;;;6276057;22;20340;-85
2024/02/21 02:36:10;;;;;;;8.75;4.85;;;8.80;99.90;;;;;;6302255;22;20007;-85
2024/02/21 02:38:35;;;;;;;11.25;4.90;;;8.80;99.90;;;;;;6302071;22;20060;-84
2024/02/21 02:41:01;;;;;;;12.18;5.65;;;8.80;99.90;;;;;;6276019;22;20019;-83
2024/02/21 02:43:27;;;;;;;8.43;4.47;;;8.80;99.90;;;;;;6275579;22;20054;-86
2024/02/21 02:45:52;;;;;;;6.25;3.97;;;8.80;99.90;;;;;;6327808;22;20003;-84
2024/02/21 02:48:19;;;;;;;8.55;3.90;;;8.80;99.90;;;;;;6302569;22;20320;-86
2024/02/21 02:50:45;;;;;;;11.10;5.20;;;8.80;99.90;;;;;;6301946;22;20053;-84
2024/02/21 02:53:11;;;;;;;9.68;4.22;;;8.70;99.90;;;;;;6301348;22;19999;-84
2024/02/21 02:55:37;;;;;;;11.18;5.43;;;8.70;99.90;;;;;;6301945;22;20010;-84
2024/02/21 02:58:03;;;;;;;7.85;4.38;;;8.80;99.90;;;;;;6275606;22;20009;-84
2024/02/21 03:00:28;;;;;;;12.55;4.90;;;8.70;99.90;;;;;;6275281;22;20015;-84
2024/02/21 03:02:54;;;;;;;9.60;5.60;;;8.70;99.90;;;;;;6301605;22;20003;-83
2024/02/21 03:05:21;;;;;;;9.50;4.15;;;8.70;99.90;;;;;;6301032;22;20056;-84
2024/02/21 03:07:47;;;;;;;7.55;3.40;;;8.70;99.90;;;;;;6301483;22;20007;-84
2024/02/21 03:10:13;;;;;;;11.55;4.57;;;8.70;99.90;;;;;;6302799;22;19999;-84
2024/02/21 03:12:39;;;;;;;7.57;4.95;;;8.80;99.90;;;;;;6275120;22;20076;-84
2024/02/21 03:15:06;;;;;;;9.05;4.00;;;8.70;99.90;;;;;;6275875;22;20011;-84
2024/02/21 03:17:34;;;;;;;14.80;4.82;;;8.70;99.90;;;;;;6302270;22;20009;-84
2024/02/21 03:20:00;;;;;;;7.13;4.13;;;8.70;99.90;;;;;;6275408;22;20019;-84
2024/02/21 03:22:25;;;;;;;6.13;3.40;;;8.70;99.90;;;;;;6275138;22;20021;-84
2024/02/21 03:24:51;;;;;;;9.73;3.50;;;8.70;99.90;;;;;;6275280;22;20011;-84
2024/02/21 03:27:17;;;;;;;7.05;2.10;;;8.70;99.90;;;;;;6301836;22;20324;-85
2024/02/21 03:29:42;;;;;;;4.78;2.50;;;8.70;99.90;;;;;;6303614;22;20007;-83
2024/02/21 03:32:09;;;;;;;10.88;3.58;;;8.70;99.90;;;;;;6303624;22;20455;-84
2024/02/21 03:34:35;;;;;;;7.95;3.42;;;8.70;99.90;;;;;;6303181;22;20045;-85
2024/02/21 03:37:01;;;;;;;8.60;3.53;;;8.70;99.90;;;;;;6304836;22;20109;-84
2024/02/21 03:39:27;;;;;;;6.88;3.00;;;8.70;99.90;;;;;;6277298;22;20359;-84
2024/02/21 03:41:53;;;;;;;7.85;3.13;;;8.70;99.90;;;;;;6303170;22;20003;-85
2024/02/21 03:44:19;;;;;;;6.95;3.33;;;8.70;99.90;;;;;;6303358;22;20038;-85
2024/02/21 03:46:44;;;;;;;6.15;2.72;;;8.70;99.90;;;;;;6303279;22;19995;-84
2024/02/21 03:49:10;;;;;;;6.05;2.13;;;8.70;99.90;;;;;;6329678;22;20006;-84
2024/02/21 03:51:36;;;;;;;7.55;2.20;;;8.70;99.90;;;;;;6303166;22;20054;-84
2024/02/21 03:54:01;;;;;;;6.35;2.15;;;8.70;99.90;;;;;;6303362;22;20075;-84
2024/02/21 03:56:27;;;;;;;6.18;1.77;;;8.70;99.90;;;;;;6305641;22;20003;-85
2024/02/21 03:58:53;;;;;;;5.95;1.45;;;8.70;99.90;;;;;;6277662;22;20293;-84
2024/02/21 04:01:18;;;;;;;3.65;1.77;;;8.70;99.90;;;;;;6329702;22;20007;-84
2024/02/21 04:03:44;;;;;;;4.20;1.00;;;8.70;99.90;;;;;;6304078;22;20003;-85
2024/02/21 04:06:10;;;;;;;4.15;1.73;;;8.70;99.90;;;;;;6329672;22;20003;-85
2024/02/21 04:08:36;;;;;;;4.63;1.85;;;8.70;99.90;;;;;;6303135;22;20061;-83
2024/02/21 04:11:02;;;;;;;5.10;1.80;;;8.70;99.90;;;;;;6303583;22;20003;-82
2024/02/21 04:13:27;;;;;;;5.55;1.48;;;8.70;99.90;;;;;;6302701;22;20488;-85
2024/02/21 04:15:53;;;;;;;7.45;1.50;;;8.70;99.90;;;;;;6277325;22;20497;-83
2024/02/21 04:18:19;;;;;;;7.05;2.38;;;8.70;99.90;;;;;;6302732;22;20010;-83
2024/02/21 04:20:44;;;;;;;4.60;2.17;;;8.70;99.90;;;;;;6303325;22;20098;-84
2024/02/21 04:23:10;;;;;;;5.80;1.88;;;8.70;99.90;;;;;;6304119;22;20309;-83
2024/02/21 04:25:36;;;;;;;8.43;2.70;;;8.70;99.90;;;;;;6304849;22;20019;-85
2024/02/21 04:28:02;;;;;;;5.82;1.55;;;8.70;99.90;;;;;;6302741;22;20004;-85
2024/02/21 04:30:28;;;;;;;5.05;1.92;;;8.70;99.90;;;;;;6302644;22;20022;-84
2024/02/21 04:32:54;;;;;;;4.63;1.58;;;8.70;99.90;;;;;;6277308;22;20007;-84
2024/02/21 04:35:20;;;;;;;5.25;2.10;;;8.70;99.90;;;;;;6302539;22;20011;-83
2024/02/21 04:37:45;;;;;;;4.93;2.33;;;8.70;99.90;;;;;;6301801;22;20391;-84
2024/02/21 04:40:11;;;;;;;5.32;1.63;;;8.70;99.90;;;;;;6302218;22;20045;-84
2024/02/21 04:42:37;;;;;;;4.40;1.80;;;8.70;99.90;;;;;;6302895;22;20011;-86
2024/02/21 04:45:03;;;;;;;7.95;1.83;;;8.70;99.90;;;;;;6302959;22;20337;-85
2024/02/21 04:47:29;;;;;;;7.28;2.45;;;8.70;99.90;;;;;;6302307;22;20084;-84
2024/02/21 04:49:55;;;;;;;8.25;2.40;;;8.70;99.90;;;;;;6277387;22;20011;-84
2024/02/21 04:52:21;;;;;;;6.85;3.05;;;8.70;99.90;;;;;;6302674;22;20009;-84
2024/02/21 04:54:47;;;;;;;4.78;3.05;;;8.70;99.90;;;;;;6276743;22;20015;-84
2024/02/21 04:57:16;;;;;;;7.05;2.55;;;8.70;99.90;;;;;;6276587;22;20058;-84
2024/02/21 04:59:49;;;;;;;5.15;2.22;;;8.70;99.90;;;;;;6276526;22;20084;-84
2024/02/21 05:02:15;;;;;;;3.90;1.67;;;8.70;99.90;;;;;;6304154;22;20007;-85
2024/02/21 05:04:41;;;;;;;6.63;1.88;;;8.70;99.90;;;;;;6304002;22;20512;-84
2024/02/21 05:07:07;;;;;;;5.43;2.30;;;8.70;99.90;;;;;;6304213;22;20004;-84
2024/02/21 05:09:33;;;;;;;5.93;2.00;;;8.70;99.90;;;;;;6301922;22;20450;-84
2024/02/21 05:11:59;;;;;;;5.47;1.33;;;8.60;99.90;;;;;;6302242;22;20018;-84
2024/02/21 05:14:26;;;;;;;4.35;1.60;;;8.70;99.90;;;;;;6328235;22;20015;-84
2024/02/21 05:16:52;;;;;;;4.40;1.63;;;8.60;99.90;;;;;;6276663;22;20061;-84
2024/02/21 05:19:18;;;;;;;6.25;1.98;;;8.60;99.90;;;;;;6276147;22;20461;-85
2024/02/21 05:21:44;;;;;;;7.13;2.55;;;8.60;99.90;;;;;;6276369;22;20082;-85
2024/02/21 05:24:10;;;;;;;6.38;2.30;;;8.60;99.90;;;;;;6302492;22;20042;-84
2024/02/21 05:26:36;;;;;;;4.93;1.65;;;8.60;99.90;;;;;;6302563;22;20007;-84
2024/02/21 05:29:01;;;;;;;4.10;1.38;;;8.60;99.90;;;;;;6276406;22;20010;-85
2024/02/21 05:31:54;;;;;;;7.25;1.95;;;8.60;99.90;;;;;;6275768;22;20425;-84
2024/02/21 05:34:21;;;;;;;3.40;1.20;;;8.60;99.90;;;;;;6276085;22;20044;-84
2024/02/21 05:36:48;;;;;;;3.90;1.48;;;8.60;99.90;;;;;;6275911;22;20549;-85
2024/02/21 05:39:16;;;;;;;5.50;2.00;;;8.60;99.90;;;;;;6301566;22;20364;-85
2024/02/21 05:41:42;;;;;;;3.95;1.92;;;8.60;99.90;;;;;;6301787;22;20097;-83
2024/02/21 05:44:07;;;;;;;4.25;1.60;;;8.60;99.90;;;;;;6276264;22;20375;-84
2024/02/21 05:46:33;;;;;;;5.57;2.25;;;8.60;99.90;;;;;;6276201;22;20053;-83
2024/02/21 05:48:58;;;;;;;4.53;1.58;;;8.60;99.90;;;;;;6276222;22;20014;-84
2024/02/21 05:51:24;;;;;;;3.72;1.30;;;8.60;99.90;;;;;;6301415;22;20039;-84
2024/02/21 05:53:50;;;;;;;6.55;2.38;;;8.60;99.90;;;;;;6300050;22;20470;-84
2024/02/21 05:56:17;;;;;;;4.13;2.00;;;8.60;99.90;;;;;;6275848;22;20344;-88
2024/02/21 05:58:43;;;;;;;4.25;2.10;;;8.60;99.90;;;;;;6303885;22;20431;-85
2024/02/21 06:01:10;;;;;;;5.03;1.63;;;8.60;99.90;;;;;;6301342;22;20015;-86
2024/02/21 06:03:36;;;;;;;7.00;2.83;;;8.60;99.90;;;;;;6276402;22;20011;-85
2024/02/21 06:06:03;;;;;;;4.28;2.03;;;8.60;99.90;;;;;;6301731;22;20005;-87
2024/02/21 06:08:28;;;;;;;5.90;1.92;;;8.60;99.90;;;;;;6301652;22;20082;-85
2024/02/21 06:10:54;;;;;;;6.15;2.08;;;8.60;99.90;;;;;;6276401;22;20473;-85
2024/02/21 06:13:29;;;;;;;5.80;1.77;;;8.60;99.90;;;;;;6301946;22;20008;-85
2024/02/21 06:15:54;;;;;;;4.53;2.03;;;8.60;99.90;;;;;;6302047;22;20007;-85
2024/02/21 06:18:21;;;;;;;8.77;2.35;;;8.50;99.90;;;;;;6301612;22;20003;-85
2024/02/21 06:20:47;;;;;;;7.50;3.00;;;8.50;99.90;;;;;;6275716;22;20041;-85
2024/02/21 06:23:20;;;;;;;3.55;1.77;;;8.50;99.90;;;;;;6275648;22;20419;-84
2024/02/21 06:25:47;;;;;;;3.90;1.73;;;8.50;99.90;;;;;;6301521;22;20011;-83
2024/02/21 06:28:13;;;;;;;5.38;1.67;;;8.50;99.90;;;;;;6301635;22;20010;-84
2024/02/21 06:30:40;;;;;;;6.60;2.20;;;8.50;99.90;;;;;;6301671;22;20011;-84
2024/02/21 06:33:05;;;;;;;6.78;2.45;;;8.50;99.90;;;;;;6301640;22;20052;-84
2024/02/21 06:35:31;;;;;;;4.47;2.22;;;8.60;99.90;;;;;;6300731;22;20049;-84
2024/02/21 06:37:57;;;;;;;7.60;3.88;;;8.50;99.90;;;;;;6301616;22;20419;-84
2024/02/21 06:40:23;;;;;;;7.55;3.35;;;8.50;99.90;;;;;;6300769;22;20110;-84
2024/02/21 06:42:52;;;;;;;8.05;3.50;;;8.50;99.90;;;;;;6275598;22;20038;-84
2024/02/21 06:45:17;;;;;;;6.43;2.25;;;8.50;99.90;;;;;;6275466;22;20013;-84
2024/02/21 06:47:43;;;;;;;8.48;2.28;;;8.50;99.90;;;;;;6301551;22;20388;-84
2024/02/21 06:50:09;;;;;;;7.63;2.60;;;8.50;99.90;;;;;;6301048;22;20010;-84
2024/02/21 06:52:36;;;;;;;5.97;2.47;;;8.50;99.90;;;;;;6275932;22;19999;-85
2024/02/21 06:55:02;;;;;;;5.05;2.15;;;8.50;99.90;;;;;;6302646;22;20008;-84
2024/02/21 06:57:29;;;;;;;4.47;2.33;;;8.50;99.90;;;;;;6275055;22;20060;-84
2024/02/21 06:59:55;;;;;;;6.55;2.30;;;8.50;99.90;;;;;;6275311;22;20017;-83
2024/02/21 07:02:20;;;;;;;7.50;2.45;;;8.50;99.90;;;;;;6274743;22;20035;-84
2024/02/21 07:04:46;;;;;;;10.18;4.05;;;8.50;99.90;;;;;;6300702;22;20206;-84
2024/02/21 07:07:12;;;;;;;8.07;4.20;;;8.50;99.90;;;;;;6301028;22;20385;-85
2024/02/21 07:09:38;;;;;;;10.80;4.28;;;8.50;99.90;;;;;;6300143;22;19999;-85
2024/02/21 07:12:04;;;;;;;7.57;3.53;;;8.60;99.90;;;;;;6275223;22;20050;-85
2024/02/21 07:14:32;;;;;;;8.25;5.03;;;8.50;99.90;;;;;;6300117;22;20003;-84
2024/02/21 07:16:57;;;;;;;12.70;4.95;;;8.50;99.90;;;;;;6274605;22;20007;-86
2024/02/21 07:19:23;;;;;;;9.98;4.72;;;8.60;99.90;;;;;;6300071;22;20021;-85
2024/02/21 07:21:49;;;;;;;8.23;4.03;;;8.50;99.90;;;;;;6301803;22;20011;-84
2024/02/21 07:24:14;;;;;;;6.05;2.97;;;8.60;99.90;;;;;;6301695;22;20015;-85
2024/02/21 07:26:44;;;;;;;9.27;4.88;;;8.60;99.90;;;;;;6274776;22;20000;-84
2024/02/21 07:29:09;;;;;;;8.18;3.60;;;8.60;99.90;;;;;;6274926;22;20007;-84
2024/02/21 07:31:42;;;;;;;6.53;3.55;;;8.60;99.90;;;;;;6301093;22;20307;-83
2024/02/21 07:34:09;;;;;;;10.70;5.28;;;8.60;99.90;;;;;;6301065;22;20004;-84
2024/02/21 07:36:34;;;;;;;12.80;4.30;;;8.60;99.90;;;;;;6274836;22;20405;-84
2024/02/21 07:39:00;;;;;;;9.45;4.55;;;8.60;99.90;;;;;;6302349;22;20074;-84
2024/02/21 07:41:26;;;;;;;10.38;4.15;;;8.60;99.90;;;;;;6300489;22;20291;-85
2024/02/21 07:43:52;;;;;;;11.27;4.78;;;8.60;99.90;;;;;;6300798;22;20238;-84
2024/02/21 07:46:18;;;;;;;9.52;4.97;;;8.60;99.90;;;;;;6302025;22;20007;-84
2024/02/21 07:48:47;;;;;;;9.45;4.65;;;8.70;99.90;;;;;;6302441;22;20012;-84
2024/02/21 07:51:13;;;;;;;7.43;4.50;;;8.70;99.90;;;;;;6274736;22;20008;-87
2024/02/21 07:53:44;;;;;;;10.35;5.00;;;8.70;99.90;;;;;;6274980;22;20121;-86
2024/02/21 07:56:13;;;;;;;16.23;6.55;;;8.70;99.90;;;;;;6301040;22;20007;-86
2024/02/21 07:58:39;;;;;;;10.40;3.97;;;8.70;99.90;;;;;;6275141;22;20084;-86
2024/02/21 08:01:05;;;;;;;6.68;3.15;;;8.70;99.90;;;;;;6273862;22;20289;-86
2024/02/21 08:03:31;;;;;;;10.55;4.32;;;8.70;99.90;;;;;;6300998;22;20436;-87
2024/02/21 08:05:56;;;;;;;10.80;3.65;;;8.80;99.90;;;;;;6301005;22;20090;-86
2024/02/21 08:08:22;;;;;;;13.70;4.38;;;8.80;99.90;;;;;;6300543;22;20044;-85
2024/02/21 08:10:51;;;;;;;11.65;4.30;;;8.80;99.90;;;;;;6301207;22;20019;-86
2024/02/21 08:13:16;;;;;;;6.55;3.17;;;8.80;99.90;;;;;;6303570;22;20017;-86
2024/02/21 08:15:42;;;;;;;7.88;3.60;;;8.90;99.90;;;;;;6276635;22;20304;-86
2024/02/21 08:18:08;;;;;;;7.50;3.47;;;8.90;99.90;;;;;;6302666;22;20074;-85
2024/02/21 08:20:34;;;;;;;7.00;4.35;;;8.90;99.90;;;;;;6302578;22;20015;-86
2024/02/21 08:23:00;;;;;;;10.60;5.18;;;8.90;99.90;;;;;;6302624;22;20513;-86
2024/02/21 08:25:26;;;;;;;11.77;4.22;;;8.90;99.90;;;;;;6301535;22;20003;-86
2024/02/21 08:27:54;;;;;;;9.02;4.85;;;8.90;99.90;;;;;;6300815;22;20312;-86
2024/02/21 08:30:20;;;;;;;10.75;4.50;;;9.00;99.90;;;;;;6301737;22;20007;-84
2024/02/21 08:32:45;;;;;;;11.23;4.45;;;9.00;99.90;;;;;;6275485;22;20336;-83
2024/02/21 08:35:12;;;;;;;9.90;4.30;;;9.10;99.90;;;;;;6300585;22;20484;-84
2024/02/21 08:37:38;;;;;;;7.50;4.53;;;9.10;99.90;;;;;;6276031;22;20003;-84
2024/02/21 08:40:08;;;;;;;11.30;4.68;;;9.20;99.90;;;;;;6275258;22;20016;-83
2024/02/21 08:42:38;;;;;;;10.48;5.95;;;9.10;99.90;;;;;;6300968;22;20010;-83
2024/02/21 08:45:04;;;;;;;11.20;5.30;;;9.10;99.90;;;;;;6300525;22;20015;-82
2024/02/21 08:47:30;;;;;;;12.63;4.75;;;9.20;99.90;;;;;;6274498;22;20011;-85
2024/02/21 08:49:56;;;;;;;11.15;4.65;;;9.10;99.90;;;;;;6302480;22;20366;-82
2024/02/21 08:52:21;;;;;;;9.20;5.00;;;9.20;99.90;;;;;;6300551;22;20041;-84
2024/02/21 08:54:47;;;;;;;12.80;5.32;;;9.20;99.90;;;;;;6300933;22;20003;-85
2024/02/21 08:57:13;;;;;;;14.45;6.75;;;9.20;99.90;;;;;;6274461;22;20046;-84
2024/02/21 08:59:40;;;;;;;9.88;4.80;;;9.20;99.90;;;;;;6275148;22;20055;-85
2024/02/21 09:02:07;;;;;;;9.65;4.53;;;9.20;99.90;;;;;;6275410;22;20000;-84
2024/02/21 09:04:33;;;;;;;12.60;5.68;;;9.20;99.90;;;;;;6275363;22;20094;-84
2024/02/21 09:06:58;;;;;;;10.15;4.53;;;9.10;99.90;;;;;;6274796;22;20381;-84
2024/02/21 09:09:24;;;;;;;9.25;4.15;;;9.20;99.90;;;;;;6275206;22;20008;-83
2024/02/21 09:11:50;;;;;;;7.38;3.92;;;9.20;99.90;;;;;;6274196;22;20257;-84
2024/02/21 09:14:15;;;;;;;11.63;5.00;;;9.30;99.90;;;;;;6300410;22;20093;-86
2024/02/21 09:16:41;;;;;;;11.63;4.78;;;9.20;99.90;;;;;;6274330;22;20013;-84
2024/02/21 09:19:10;;;;;;;6.50;3.30;;;9.20;99.90;;;;;;6300859;22;20454;-84
2024/02/21 09:21:37;;;;;;;7.45;2.92;;;9.30;99.90;;;;;;6300865;22;20007;-84
2024/02/21 09:24:02;;;;;;;8.40;3.90;;;9.40;99.90;;;;;;6300748;22;20337;-85
2024/02/21 09:26:28;;;;;;;6.40;3.00;;;9.30;99.90;;;;;;6274365;22;20257;-84
2024/02/21 09:28:54;;;;;;;6.45;3.25;;;9.30;99.90;;;;;;6301696;22;20098;-84
2024/02/21 09:31:19;;;;;;;9.15;4.15;;;9.30;99.90;;;;;;6300749;22;20702;-85
2024/02/21 09:33:45;;;;;;;6.90;3.78;;;9.30;99.90;;;;;;6301099;22;20004;-84
2024/02/21 09:36:11;;;;;;;7.25;3.28;;;9.30;99.90;;;;;;6300473;22;20015;-85
2024/02/21 09:38:37;;;;;;;6.82;2.80;;;9.30;99.90;;;;;;6274810;22;19999;-85
2024/02/21 09:41:20;;;;;;;6.78;3.75;;;9.40;99.90;;;;;;6274433;22;20124;-84
2024/02/21 09:43:45;;;;;;;6.95;4.13;;;9.40;99.90;;;;;;6300703;22;20010;-85
2024/02/21 09:46:20;;;;;;;10.30;4.68;;;9.30;99.90;;;;;;6301606;22;20006;-85
2024/02/21 09:49:34;;;;;;;7.57;4.30;;;9.30;99.90;;;;;;6300708;22;20045;-85
2024/02/21 09:52:04;;;;;;;8.63;3.88;;;9.40;99.90;;;;;;6280599;22;20462;-84
2024/02/21 09:54:32;;;;;;;4.18;2.10;;;9.50;99.90;;;;;;6274690;22;20011;-82
2024/02/21 09:56:58;;;;;;;5.82;3.08;;;9.60;99.90;;;;;;6274381;22;20247;-85
2024/02/21 09:59:24;;;;;;;7.80;4.18;;;9.60;99.90;;;;;;6301366;22;20141;-85
2024/02/21 10:01:51;;;;;;;8.68;3.75;;;9.60;99.90;;;;;;6274915;22;20022;-83
2024/02/21 10:04:18;;;;;;;8.82;4.50;;;9.50;99.90;;;;;;6300449;22;20023;-85
2024/02/21 10:06:44;;;;;;;7.63;4.72;;;9.50;99.90;;;;;;6274812;22;20003;-85
2024/02/21 10:09:21;;;;;;;8.82;3.72;;;9.50;99.90;;;;;;6302045;22;20064;-83
2024/02/21 10:11:46;;;;;;;6.68;3.78;;;9.50;99.90;;;;;;6299990;22;20023;-83
2024/02/21 10:14:12;;;;;;;7.68;3.80;;;9.50;99.90;;;;;;6300093;22;20451;-85
2024/02/21 10:16:37;;;;;;;7.03;2.85;;;9.40;99.90;;;;;;6300277;22;20011;-85
2024/02/21 10:19:03;;;;;;;5.32;2.55;;;9.50;99.90;;;;;;6299842;22;20421;-85
2024/02/21 10:21:29;;;;;;;4.25;2.05;;;9.60;99.90;;;;;;6274383;22;20003;-84
2024/02/21 10:23:55;;;;;;;3.40;2.03;;;9.60;99.90;;;;;;6300588;22;20279;-84
2024/02/21 10:26:21;;;;;;;4.93;2.20;;;9.50;99.90;;;;;;6299672;22;20003;-85
2024/02/21 10:28:48;;;;;;;4.40;1.55;;;9.60;99.90;;;;;;6301927;22;20034;-86
2024/02/21 10:31:28;;;;;;;4.47;1.65;;;9.60;99.90;;;;;;6299904;22;19999;-87
2024/02/21 10:33:57;;;;;;;6.30;1.60;;;9.60;99.90;;;;;;6299977;22;20090;-87
2024/02/21 10:36:24;;;;;;;3.65;1.27;;;9.60;99.90;;;;;;6300542;22;20076;-85
2024/02/21 10:38:51;;;;;;;3.90;1.52;;;9.50;99.90;;;;;;6274591;22;20011;-85
2024/02/21 10:41:19;;;;;;;3.55;1.10;;;9.40;99.90;;;;;;6301327;22;20015;-85
2024/02/21 10:43:53;;;;;;;3.33;0.80;;;9.30;99.90;;;;;;6300194;22;19999;-86
2024/02/21 10:46:20;;;;;;;2.72;0.80;;;9.40;99.90;;;;;;6274134;22;20014;-85
2024/02/21 10:48:48;;;;;;;2.85;0.90;;;9.40;99.90;;;;;;6274275;22;20029;-85
2024/02/21 10:51:23;;;;;;;4.85;1.02;;;9.30;99.90;;;;;;6299276;22;20013;-85
2024/02/21 10:54:26;;;;;;;3.03;1.30;;;9.20;99.90;;;;;;6274463;22;20015;-86
2024/02/21 10:56:56;;;;;;;2.95;1.02;;;9.30;99.90;;;;;;6299952;22;20011;-85
2024/02/21 10:59:23;;;;;;;3.10;1.55;;;9.40;99.90;;;;;;6274010;22;20011;-85
2024/02/21 11:01:49;;;;;;;4.90;1.60;;;9.40;99.90;;;;;;6300123;22;19999;-85
2024/02/21 11:04:15;;;;;;;4.03;1.25;;;9.40;99.90;;;;;;6273955;22;20813;-86
2024/02/21 11:06:41;;;;;;;3.50;0.90;;;9.40;99.90;;;;;;6274455;22;20022;-86
2024/02/21 11:09:09;;;;;;;4.25;1.50;;;9.50;99.90;;;;;;6301597;22;20038;-86
2024/02/21 11:11:39;;;;;;;4.70;2.08;;;9.50;99.90;;;;;;6300948;22;20098;-86
2024/02/21 11:14:06;;;;;;;;;;;9.50;99.90;;;;;;6302270;22;20010;-87
2024/02/21 11:16:37;;;;;;;3.25;1.35;;;9.60;99.90;;;;;;6274643;22;19906;-84
2024/02/21 11:19:18;;;;;;;5.38;2.00;;;9.60;99.90;;;;;;6274127;22;20036;-86
2024/02/21 11:21:44;;;;;;;1.85;0.88;;;9.60;99.90;;;;;;6274196;22;20007;-86
2024/02/21 11:24:09;;;;;;;3.70;1.30;;;9.60;99.90;;;;;;6299885;22;20022;-86
2024/02/21 11:26:37;;;;;;;4.43;1.00;;;9.70;99.90;;;;;;6300075;22;20050;-85
2024/02/21 11:29:09;;;;;;;3.30;1.20;;;9.70;99.90;;;;;;6273988;22;20014;-86
2024/02/21 11:31:42;;;;;;;3.17;1.00;;;9.70;99.90;;;;;;6299957;22;20034;-88
2024/02/21 11:34:12;;;;;;;2.58;0.85;;;9.80;99.90;;;;;;6274129;22;20011;-85
2024/02/21 11:36:48;;;;;;;3.72;1.10;;;9.80;99.90;;;;;;6273892;22;20007;-85
2024/02/21 11:39:19;;;;;;;4.35;1.52;;;9.70;99.90;;;;;;6272985;22;20019;-86
2024/02/21 11:41:44;;;;;;;;;;;9.60;99.90;;;;;;6274902;22;20150;-84
2024/02/21 11:44:10;;;;;;;4.60;1.73;;;9.70;99.90;;;;;;6301522;22;20083;-85
2024/02/21 11:46:36;;;;;;;4.80;1.40;;;9.70;99.90;;;;;;6299574;22;20022;-85
2024/02/21 11:49:03;;;;;;;4.47;1.50;;;9.60;99.90;;;;;;6301431;22;20003;-84
2024/02/21 11:51:29;;;;;;;5.25;1.33;;;9.60;99.90;;;;;;6302037;22;20003;-85
2024/02/21 11:53:54;;;;;;;3.67;1.00;;;9.60;99.90;;;;;;6301770;22;20454;-86
2024/02/21 11:56:20;;;;;;;5.22;1.98;;;9.60;99.90;;;;;;6300974;22;20018;-84
2024/02/21 11:58:49;;;;;;;6.68;1.75;;;9.50;99.90;;;;;;6276100;22;20094;-85
2024/02/21 12:01:15;;;;;;;8.15;1.55;;;9.50;99.90;;;;;;6301843;22;20022;-85
2024/02/21 12:03:49;;;;;;;5.32;1.67;;;9.50;99.90;;;;;;6302128;22;20007;-85
2024/02/21 12:06:19;;;;;;;3.35;0.85;;;9.50;99.90;;;;;;6301751;22;20013;-86
2024/02/21 12:08:45;;;;;;;3.60;0.90;;;9.50;99.90;;;;;;6276001;22;20050;-86
2024/02/21 12:11:22;;;;;;;6.15;1.35;;;9.50;99.90;;;;;;6276000;22;20011;-85
2024/02/21 12:13:58;;;;;;;4.07;1.30;;;9.50;99.90;;;;;;6303428;22;20082;-86
2024/02/21 12:16:24;;;;;;;5.30;1.67;;;9.50;99.90;;;;;;6275515;22;20004;-85
2024/02/21 12:18:53;;;;;;;6.30;1.85;;;9.50;99.90;;;;;;6303312;22;20007;-85
2024/02/21 12:21:19;;;;;;;5.55;1.55;;;9.50;99.90;;;;;;6275805;22;20629;-85
2024/02/21 12:23:46;;;;;;;4.40;1.55;;;9.60;99.90;;;;;;6327467;22;19999;-85
2024/02/21 12:26:12;;;;;;;3.22;1.00;;;9.60;99.90;;;;;;6275825;22;20011;-85
2024/02/21 12:28:38;;;;;;;3.85;1.02;;;9.80;99.90;;;;;;6301483;22;20003;-85
2024/02/21 12:31:03;;;;;;;5.95;1.50;;;9.90;99.90;;;;;;6301362;22;20443;-86
2024/02/21 12:33:30;;;;;;;5.40;1.65;;;9.80;99.90;;;;;;6275853;22;20094;-85
2024/02/21 12:35:56;;;;;;;2.92;1.15;;;9.90;99.90;;;;;;6275969;22;20084;-84
2024/02/21 12:38:21;;;;;;;4.47;0.90;;;10.10;99.90;;;;;;6275449;22;20132;-85
2024/02/21 12:40:47;;;;;;;4.38;1.27;;;10.30;99.90;;;;;;6301563;22;20046;-86
2024/02/21 12:43:13;;;;;;;5.15;1.17;;;10.40;99.90;;;;;;6301448;22;20038;-85
2024/02/21 12:45:39;;;;;;;4.88;1.38;;;10.50;99.90;;;;;;6301445;22;20416;-87
2024/02/21 12:48:05;;;;;;;4.97;2.15;;;10.60;99.90;;;;;;6301597;22;20359;-85
2024/02/21 12:50:31;;;;;;;4.85;1.92;;;10.50;99.90;;;;;;6327010;22;20018;-85
2024/02/21 12:52:58;;;;;;;4.13;1.10;;;10.50;99.90;;;;;;6301068;22;20014;-85